»·PEaware :: N8979T KSAN-KLAS

N8979T :: KSAN-KLAS

FLIGHT INFORMATION

Flight Status: Arrived
Operator: Privately registered:
United States
More flights under this callsign
Pilot: Brett J. (1348)
Aircraft: SOCATA TBM-900
(TBM9)
More flights by this aircraft type
Origin: KSAN San Diego Intl-Lindbergh
United States
Destination: KLAS McCarran Intl
United States
More flights between these airports :: More routes between these airports
Route: BRDR7 JLI V514 GFS V538 LAS
File this flight plan on PilotEdge
Remarks:
Altitude:
(Current/Filed)
23,000ft
Speed:
(Current/Filed)
268kts
Departed: 04-Dec-18 09:44 PM
Arrived: 04-Dec-18 10:40 PM
Distance/Time
Traveled:
224nm/0:55
Distance/Time
To Go:
Arrived

Flight Plot

Page will automatically refresh every two minutes.

Flight plan parsing failed; only flown route is shown


Map Options




Map Legend


Flown Route
Filed Route
Departure Airport
Arrival Airport
Navaid (VOR, NDB)
Fix

Horizontal Profiles

Position Reports

Time Latitude Longitude Heading Altitude Ground
Speed
04-Dec-18 21:19 32.735348 -117.189423 140 20ft 0kts
04-Dec-18 21:20 32.735348 -117.189423 140 20ft 0kts
04-Dec-18 21:21 32.735348 -117.189423 140 20ft 0kts
04-Dec-18 21:22 32.735348 -117.189423 140 20ft 0kts
04-Dec-18 21:23 32.735348 -117.189423 140 20ft 0kts
04-Dec-18 21:24 32.735348 -117.189423 140 20ft 0kts
04-Dec-18 21:25 32.735348 -117.189423 140 20ft 0kts
04-Dec-18 21:26 32.735348 -117.189423 140 20ft 0kts
04-Dec-18 21:26 32.735348 -117.189423 140 20ft 0kts
04-Dec-18 21:28 32.735348 -117.189423 140 20ft 0kts
04-Dec-18 21:29 32.735348 -117.189423 140 20ft 0kts
04-Dec-18 21:30 32.735348 -117.189423 140 20ft 0kts
04-Dec-18 21:30 32.735348 -117.189423 140 20ft 0kts
04-Dec-18 21:32 32.735348 -117.189423 139 20ft 0kts
04-Dec-18 21:33 32.735348 -117.189423 139 20ft 0kts
04-Dec-18 21:33 32.735348 -117.189423 139 20ft 0kts
04-Dec-18 21:35 32.735348 -117.189423 139 20ft 0kts
04-Dec-18 21:35 32.735348 -117.189423 139 20ft 0kts
04-Dec-18 21:36 32.735348 -117.189423 139 20ft 0kts
04-Dec-18 21:37 32.734596 -117.188575 125 20ft 7kts
04-Dec-18 21:38 32.733502 -117.184632 105 20ft 18kts
04-Dec-18 21:39 32.732085 -117.178699 106 20ft 19kts
04-Dec-18 21:40 32.730921 -117.175445 160 20ft 0kts
04-Dec-18 21:41 32.730921 -117.175445 160 20ft 0kts
04-Dec-18 21:42 32.730209 -117.175842 286 20ft 10kts
04-Dec-18 21:43 32.733450 -117.191457 275 308ft 116kts
04-Dec-18 21:44 32.741502 -117.223128 288 2469ft 100kts
04-Dec-18 21:45 32.753748 -117.262489 290 4196ft 155kts
04-Dec-18 21:46 32.754814 -117.313767 213 5809ft 190kts
04-Dec-18 21:47 32.715048 -117.281853 132 7417ft 191kts
04-Dec-18 21:48 32.681171 -117.238632 124 8856ft 184kts
04-Dec-18 21:49 32.711114 -117.188828 45 10376ft 221kts
04-Dec-18 21:50 32.752851 -117.134424 50 11870ft 231kts
04-Dec-18 21:51 32.794002 -117.076900 50 13343ft 234kts
04-Dec-18 21:52 32.836059 -117.017661 50 14844ft 245kts
04-Dec-18 21:53 32.879037 -116.957016 50 16768ft 239kts
04-Dec-18 21:54 32.920860 -116.897889 50 18710ft 240kts
04-Dec-18 21:55 32.962179 -116.839389 49 20635ft 237kts
04-Dec-18 21:56 33.003370 -116.780977 49 22590ft 229kts
04-Dec-18 21:57 33.049148 -116.715975 49 23100ft 305kts
04-Dec-18 21:58 33.106867 -116.633830 49 23058ft 345kts
04-Dec-18 21:59 33.172301 -116.558184 33 23055ft 349kts
04-Dec-18 22:00 33.250305 -116.490572 34 23074ft 352kts
04-Dec-18 22:01 33.328239 -116.422717 34 23106ft 351kts
04-Dec-18 22:02 33.405925 -116.354931 34 23113ft 352kts
04-Dec-18 22:03 33.482668 -116.287805 35 23107ft 352kts
04-Dec-18 22:04 33.560696 -116.219405 35 23108ft 352kts
04-Dec-18 22:05 33.638840 -116.151654 32 23110ft 351kts
04-Dec-18 22:06 33.718943 -116.087381 32 23111ft 352kts
04-Dec-18 22:07 33.799048 -116.023015 32 23112ft 352kts
04-Dec-18 22:08 33.879897 -115.957886 32 23114ft 352kts
04-Dec-18 22:09 33.960546 -115.892771 32 23129ft 352kts
04-Dec-18 22:10 34.040833 -115.827807 32 23172ft 352kts
04-Dec-18 22:11 34.120104 -115.761003 41 23181ft 353kts
04-Dec-18 22:12 34.191576 -115.680829 42 23191ft 352kts
04-Dec-18 22:13 34.263011 -115.600433 42 23192ft 352kts
04-Dec-18 22:14 34.336985 -115.524054 17 23176ft 348kts
04-Dec-18 22:15 34.427685 -115.485270 15 23195ft 348kts
04-Dec-18 22:16 34.518067 -115.445924 15 23196ft 348kts
04-Dec-18 22:17 34.608960 -115.406246 15 23189ft 349kts
04-Dec-18 22:18 34.699730 -115.366530 15 23175ft 349kts
04-Dec-18 22:19 34.790271 -115.326851 16 22430ft 368kts
04-Dec-18 22:20 34.887650 -115.284023 17 20484ft 375kts
04-Dec-18 22:21 34.982474 -115.242245 19 18524ft 359kts
04-Dec-18 22:22 35.074126 -115.201716 20 16552ft 346kts
04-Dec-18 22:23 35.163146 -115.175643 359 14583ft 335kts
04-Dec-18 22:24 35.253981 -115.174317 359 12971ft 315kts
04-Dec-18 22:25 35.334137 -115.172910 359 13002ft 295kts
04-Dec-18 22:26 35.417624 -115.171481 0 11817ft 311kts
04-Dec-18 22:27 35.501760 -115.170003 1 11015ft 284kts
04-Dec-18 22:28 35.578683 -115.168639 0 11026ft 278kts
04-Dec-18 22:29 35.656053 -115.167285 0 11026ft 281kts
04-Dec-18 22:30 35.734920 -115.165927 1 9979ft 285kts
04-Dec-18 22:31 35.812744 -115.164542 2 8064ft 274kts
04-Dec-18 22:32 35.876346 -115.163424 3 7929ft 200kts
04-Dec-18 22:33 35.937778 -115.162131 3 6005ft 232kts
04-Dec-18 22:34 36.002211 -115.159981 3 4032ft 232kts
04-Dec-18 22:35 36.047261 -115.156345 15 3773ft 129kts
04-Dec-18 22:36 36.077428 -115.132806 30 3208ft 124kts
04-Dec-18 22:37 36.106969 -115.118360 325 3206ft 117kts
04-Dec-18 22:38 36.109475 -115.155285 216 2625ft 128kts
04-Dec-18 22:39 36.087591 -115.163373 182 2144ft 22kts
04-Dec-18 22:40 36.084096 -115.166182 228 2144ft 23kts
04-Dec-18 22:41 36.081551 -115.170546 330 2144ft 4kts
04-Dec-18 22:42 36.081625 -115.170571 353 2144ft 0kts

Navigation Log

Ident Type
Flight plan parsing failed, navigation log unavailable